Dacono, Colorado
Current Conditions -  °F | °C
As of 12:55 AM on Friday 31 Oct 2014 (Local Time) from KEIK Reporting Station
Clear Clear  
Wind Chill: 33°   Ceiling: Unl
Heat Index: 33°   Visibility: 10mi
Dew Point: 29°   Wind: 0mph
Humidity: 85%   Direction: NA
Pressure: 30.39"   Gusts: NA
Location:  40.08°N, 104.94°W
Report Text: KEIK 310655Z AUTO 00000KT 10SM CLR 01/M02 A3039 RMK AO2 T00061016
Loading
Personal Weather Stations






























Interactive Weather Map
Tropical Storm Tracking
New forecast layout! Learn more

10-Day Weather Forecast

Advertisements
Track Severe Weather on mobile